createdAt,value
2023-01-21T00:01:17.068Z,20.85
2023-01-21T00:03:45.715Z,25.35
2023-01-21T00:06:15.960Z,23.98
2023-01-21T00:08:44.445Z,24.80
2023-01-21T00:11:14.994Z,19.98
2023-01-21T00:13:43.893Z,28.00
2023-01-21T00:16:12.338Z,29.13
2023-01-21T00:18:40.744Z,20.58
2023-01-21T00:21:09.099Z,20.40
2023-01-21T00:23:38.721Z,19.40
2023-01-21T00:26:08.042Z,23.98
2023-01-21T00:28:37.116Z,15.52
2023-01-21T00:31:06.722Z,21.60
2023-01-21T00:33:35.121Z,14.85
2023-01-21T00:36:05.619Z,17.95
2023-01-21T00:38:34.037Z,15.45
2023-01-21T00:41:04.599Z,22.23
2023-01-21T00:43:32.989Z,19.33
2023-01-21T00:46:01.500Z,15.25
2023-01-21T00:48:29.966Z,12.25
2023-01-21T00:51:00.620Z,15.57
2023-01-21T00:53:29.177Z,21.90
2023-01-21T00:56:01.574Z,21.80
2023-01-21T00:58:31.381Z,21.80
2023-01-21T01:01:03.655Z,16.70
2023-01-21T01:03:32.226Z,15.32
2023-01-21T01:06:05.184Z,19.05
2023-01-21T01:08:33.703Z,15.00
2023-01-21T01:11:02.163Z,16.10
2023-01-21T01:13:31.910Z,21.30
2023-01-21T01:16:00.385Z,16.85
2023-01-21T01:18:29.079Z,22.00
2023-01-21T01:20:57.548Z,25.90
2023-01-21T01:23:25.919Z,24.88
2023-01-21T01:25:58.274Z,28.15
2023-01-21T01:28:26.681Z,28.83
2023-01-21T01:30:56.471Z,30.48
2023-01-21T01:33:24.981Z,32.42
2023-01-21T01:35:53.341Z,27.08
2023-01-21T01:38:23.360Z,33.58
2023-01-21T01:40:53.163Z,41.40
2023-01-21T01:43:24.232Z,50.28
2023-01-21T01:45:52.481Z,49.55
2023-01-21T01:48:24.666Z,45.53
2023-01-21T01:50:52.966Z,41.50
2023-01-21T01:53:21.264Z,39.53
2023-01-21T01:55:49.536Z,28.10
2023-01-21T01:58:18.086Z,32.40
2023-01-21T02:00:46.469Z,33.20
2023-01-21T02:03:33.197Z,27.65
2023-01-21T02:06:03.223Z,40.67
2023-01-21T02:08:32.715Z,34.20
2023-01-21T02:11:02.582Z,39.72
2023-01-21T02:13:31.880Z,34.67
2023-01-21T02:16:25.393Z,35.83
2023-01-21T02:18:58.642Z,29.13
2023-01-21T02:22:03.994Z,32.63
2023-01-21T02:25:26.541Z,31.40
2023-01-21T02:28:23.127Z,35.30
2023-01-21T02:31:34.088Z,31.00
2023-01-21T02:34:24.336Z,31.38
2023-01-21T02:37:11.105Z,33.17
2023-01-21T02:40:07.162Z,31.20
2023-01-21T02:42:41.102Z,25.13
2023-01-21T02:45:21.231Z,24.17
2023-01-21T02:47:54.818Z,30.30
2023-01-21T02:50:26.023Z,25.23
2023-01-21T02:52:58.467Z,25.85
2023-01-21T02:55:30.548Z,23.85
2023-01-21T02:58:01.040Z,31.63
2023-01-21T03:00:33.256Z,33.55
2023-01-21T03:03:35.393Z,29.60
2023-01-21T03:06:51.249Z,24.80
2023-01-21T03:09:23.110Z,22.88
2023-01-21T03:12:03.211Z,29.35
2023-01-21T03:14:50.984Z,26.15
2023-01-21T03:17:26.538Z,27.70
2023-01-21T03:19:58.979Z,27.30
2023-01-21T03:22:32.386Z,23.85
2023-01-21T03:25:02.174Z,32.10
2023-01-21T03:27:30.961Z,27.58
2023-01-21T03:30:00.740Z,28.80
2023-01-21T03:32:29.875Z,31.17
2023-01-21T03:34:58.280Z,28.52
2023-01-21T03:37:31.607Z,31.05
2023-01-21T03:40:06.709Z,35.95
2023-01-21T03:42:35.032Z,35.38
2023-01-21T03:45:03.415Z,35.90
2023-01-21T03:47:33.455Z,35.45
2023-01-21T03:50:05.401Z,26.05
2023-01-21T03:52:35.119Z,29.50
2023-01-21T03:55:03.431Z,24.40
2023-01-21T03:57:31.664Z,28.42
2023-01-21T04:00:00.043Z,28.35
2023-01-21T04:02:28.335Z,33.28
2023-01-21T04:04:56.680Z,28.30
2023-01-21T04:07:25.033Z,20.10
2023-01-21T04:09:54.651Z,35.22
2023-01-21T04:12:23.162Z,22.10
2023-01-21T04:14:51.452Z,21.58
2023-01-21T04:17:19.733Z,19.70
2023-01-21T04:19:48.047Z,17.88
2023-01-21T04:22:16.358Z,20.67
2023-01-21T04:24:44.697Z,20.75
2023-01-21T04:27:14.404Z,16.70
2023-01-21T04:29:42.722Z,19.92
2023-01-21T04:32:11.036Z,20.45
2023-01-21T04:34:39.388Z,18.58
2023-01-21T04:37:07.719Z,23.23
2023-01-21T04:39:36.107Z,19.05
2023-01-21T04:42:05.287Z,12.80
2023-01-21T04:44:34.922Z,14.60
2023-01-21T04:47:03.203Z,15.40
2023-01-21T04:49:31.512Z,19.10
2023-01-21T04:51:59.881Z,11.27
2023-01-21T04:54:28.210Z,14.25
2023-01-21T04:56:56.519Z,17.42
2023-01-21T04:59:24.875Z,15.77
2023-01-21T05:01:54.627Z,15.73
2023-01-21T05:04:22.948Z,18.13
2023-01-21T05:06:51.401Z,11.63
2023-01-21T05:09:19.763Z,14.50
2023-01-21T05:11:48.336Z,12.48
2023-01-21T05:14:16.556Z,8.52
2023-01-21T05:16:44.852Z,16.65
2023-01-21T05:19:14.628Z,15.73
2023-01-21T05:21:42.917Z,11.88
2023-01-21T05:24:11.693Z,15.23
2023-01-21T05:26:40.059Z,11.23
2023-01-21T05:29:08.370Z,17.48
2023-01-21T05:31:36.827Z,8.80
2023-01-21T05:34:05.286Z,12.25
2023-01-21T05:36:34.907Z,9.30
2023-01-21T05:39:03.307Z,12.45
2023-01-21T05:41:31.670Z,9.10
2023-01-21T05:44:00.027Z,11.00
2023-01-21T05:46:28.363Z,9.23
2023-01-21T05:48:56.724Z,15.02
2023-01-21T05:51:25.064Z,14.23
2023-01-21T05:53:55.476Z,15.15
2023-01-21T05:56:23.772Z,11.30
2023-01-21T05:58:52.116Z,14.73
2023-01-21T06:01:20.464Z,13.77
2023-01-21T06:03:48.880Z,11.68
2023-01-21T06:06:17.289Z,11.35
2023-01-21T06:08:45.621Z,17.73
2023-01-21T06:11:15.305Z,14.52
2023-01-21T06:13:43.559Z,13.43
2023-01-21T06:16:11.987Z,16.20
2023-01-21T06:18:40.343Z,24.33
2023-01-21T06:21:08.630Z,14.05
2023-01-21T06:23:37.036Z,15.80
2023-01-21T06:26:05.690Z,15.57
2023-01-21T06:28:35.404Z,14.80
2023-01-21T06:31:04.130Z,16.75
2023-01-21T06:33:32.557Z,15.93
2023-01-21T06:36:00.871Z,12.20
2023-01-21T06:38:29.419Z,19.65
2023-01-21T06:40:57.802Z,18.33
2023-01-21T06:43:26.153Z,11.82
2023-01-21T06:45:55.928Z,15.95
2023-01-21T06:48:24.345Z,23.75
2023-01-21T06:50:52.727Z,14.40
2023-01-21T06:53:21.080Z,20.50
2023-01-21T06:55:49.501Z,18.58
2023-01-21T06:58:17.760Z,20.75
2023-01-21T07:00:46.026Z,15.68
2023-01-21T07:03:16.061Z,21.25
2023-01-21T07:05:44.328Z,19.45
2023-01-21T07:08:12.639Z,19.05
2023-01-21T07:10:41.189Z,16.58
2023-01-21T07:13:09.499Z,14.82
2023-01-21T07:15:37.843Z,18.60
2023-01-21T07:18:06.380Z,19.65
2023-01-21T07:20:36.067Z,25.20
2023-01-21T07:23:04.315Z,21.95
2023-01-21T07:25:33.360Z,18.25
2023-01-21T07:28:01.621Z,20.30
2023-01-21T07:30:29.910Z,19.33
2023-01-21T07:32:58.321Z,20.63
2023-01-21T07:35:26.716Z,25.58
2023-01-21T07:37:56.425Z,18.48
2023-01-21T07:40:24.824Z,20.10
2023-01-21T07:42:53.824Z,22.08
2023-01-21T07:45:22.416Z,19.90
2023-01-21T07:47:50.840Z,21.58
2023-01-21T07:50:19.321Z,20.10
2023-01-21T07:52:47.684Z,18.98
2023-01-21T07:55:17.575Z,21.90
2023-01-21T07:57:46.053Z,20.85
2023-01-21T08:00:16.506Z,23.88
2023-01-21T08:02:44.889Z,24.75
2023-01-21T08:05:13.475Z,17.30
2023-01-21T08:07:41.788Z,20.48
2023-01-21T08:10:11.692Z,24.98
2023-01-21T08:12:41.797Z,17.20
2023-01-21T08:15:11.041Z,16.65
2023-01-21T08:17:39.790Z,21.20
2023-01-21T08:20:10.539Z,19.17
2023-01-21T08:22:38.835Z,17.65
2023-01-21T08:25:08.617Z,20.00
2023-01-21T08:27:36.968Z,16.67
2023-01-21T08:30:08.366Z,20.67
2023-01-21T08:32:36.689Z,18.35
2023-01-21T08:35:06.184Z,21.23
2023-01-21T08:37:34.467Z,18.65
2023-01-21T08:40:03.457Z,16.70
2023-01-21T08:42:31.841Z,19.35
2023-01-21T08:45:00.137Z,15.65
2023-01-21T08:47:29.798Z,19.80
2023-01-21T08:49:58.432Z,21.10
2023-01-21T08:52:27.027Z,23.17
2023-01-21T08:54:55.340Z,19.13
2023-01-21T08:57:23.683Z,18.17
2023-01-21T08:59:51.999Z,19.63
2023-01-21T09:02:20.407Z,16.70
2023-01-21T09:04:51.294Z,17.17
2023-01-21T09:07:19.593Z,18.35
2023-01-21T09:09:49.976Z,17.83
2023-01-21T09:12:18.268Z,24.02
2023-01-21T09:14:46.612Z,17.40
2023-01-21T09:17:14.918Z,19.90
2023-01-21T09:19:43.279Z,18.65
2023-01-21T09:22:13.887Z,15.23
2023-01-21T09:24:42.186Z,16.13
2023-01-21T09:27:10.565Z,16.25
2023-01-21T09:29:38.841Z,19.52
2023-01-21T09:32:07.403Z,17.90
2023-01-21T09:34:36.004Z,19.42
2023-01-21T09:37:05.096Z,24.45
2023-01-21T09:39:34.837Z,19.77
2023-01-21T09:42:03.214Z,19.67
2023-01-21T09:44:33.382Z,20.95
2023-01-21T09:47:05.035Z,19.02
2023-01-21T09:49:36.008Z,19.00
2023-01-21T09:52:10.287Z,23.50
2023-01-21T09:54:40.565Z,24.48
2023-01-21T09:57:48.482Z,21.13
2023-01-21T10:00:32.425Z,19.88
2023-01-21T10:03:05.416Z,24.70
2023-01-21T10:05:59.244Z,19.10
2023-01-21T10:08:33.737Z,18.92
2023-01-21T10:11:18.771Z,18.00
2023-01-21T10:14:03.686Z,21.38
2023-01-21T10:16:36.840Z,16.08
2023-01-21T10:19:05.950Z,13.38
2023-01-21T10:21:36.903Z,19.42
2023-01-21T10:24:10.656Z,18.25
2023-01-21T10:26:40.295Z,19.00
2023-01-21T10:29:10.635Z,17.27
2023-01-21T10:31:41.642Z,17.52
2023-01-21T10:34:14.108Z,16.98
2023-01-21T10:36:55.133Z,22.95
2023-01-21T10:39:34.586Z,17.20
2023-01-21T10:42:19.170Z,20.30
2023-01-21T10:44:52.244Z,19.40
2023-01-21T10:47:28.259Z,10.35
2023-01-21T10:50:01.499Z,18.85
2023-01-21T10:52:36.144Z,22.42
2023-01-21T10:55:08.839Z,18.65
2023-01-21T10:57:51.097Z,16.75
2023-01-21T11:00:23.332Z,16.92
2023-01-21T11:02:55.330Z,15.65
2023-01-21T11:05:24.058Z,16.83
2023-01-21T11:07:52.325Z,18.48
2023-01-21T11:10:23.510Z,18.55
2023-01-21T11:12:54.603Z,19.15
2023-01-21T11:15:23.252Z,13.65
2023-01-21T11:17:53.749Z,17.33
2023-01-21T11:20:26.512Z,17.75
2023-01-21T11:22:54.764Z,15.77
2023-01-21T11:25:29.401Z,15.70
2023-01-21T11:27:59.019Z,18.08
2023-01-21T11:30:49.612Z,14.68
2023-01-21T11:33:25.862Z,15.63
2023-01-21T11:35:54.412Z,14.52
2023-01-21T11:38:31.840Z,15.68
2023-01-21T11:41:15.529Z,16.95
2023-01-21T11:43:46.179Z,12.25
2023-01-21T11:46:31.654Z,12.05
2023-01-21T11:49:23.017Z,13.95
2023-01-21T11:51:51.376Z,13.13
2023-01-21T11:54:20.605Z,13.38
2023-01-21T11:56:57.538Z,10.65
2023-01-21T11:59:29.159Z,15.02
2023-01-21T12:01:59.145Z,16.13
2023-01-21T12:04:27.586Z,14.43
2023-01-21T12:06:58.128Z,13.52
2023-01-21T12:09:27.277Z,9.65
2023-01-21T12:12:29.450Z,10.07
2023-01-21T12:15:00.332Z,6.55
2023-01-21T12:17:45.226Z,7.63
2023-01-21T12:20:22.027Z,6.85
2023-01-21T12:23:00.104Z,6.10
2023-01-21T12:25:38.347Z,5.07
2023-01-21T12:28:38.773Z,7.28
2023-01-21T12:31:21.414Z,8.98
2023-01-21T12:33:53.271Z,6.30
2023-01-21T12:36:24.096Z,5.47
2023-01-21T12:39:07.648Z,4.72
2023-01-21T12:41:35.975Z,5.28
2023-01-21T12:44:17.926Z,6.07
2023-01-21T12:46:49.190Z,7.90
2023-01-21T12:49:21.411Z,5.63
2023-01-21T12:51:52.428Z,5.45
2023-01-21T12:54:25.005Z,8.98
2023-01-21T12:56:56.484Z,4.40
2023-01-21T12:59:26.794Z,4.55
2023-01-21T13:02:00.054Z,4.45
2023-01-21T13:04:43.789Z,4.15
2023-01-21T13:07:20.153Z,6.18
2023-01-21T13:09:53.920Z,3.83
2023-01-21T13:12:23.434Z,4.20
2023-01-21T13:14:55.501Z,4.35
2023-01-21T13:17:28.165Z,4.15
2023-01-21T13:19:56.516Z,3.85
2023-01-21T13:22:34.972Z,7.63
2023-01-21T13:25:12.677Z,7.90
2023-01-21T13:27:44.597Z,6.43
2023-01-21T13:30:22.229Z,4.78
2023-01-21T13:32:56.271Z,2.80
2023-01-21T13:35:42.097Z,9.50
2023-01-21T13:38:19.581Z,2.92
2023-01-21T13:40:53.326Z,4.43
2023-01-21T13:43:39.066Z,3.47
2023-01-21T13:46:17.975Z,2.90
2023-01-21T13:49:04.596Z,3.30
2023-01-21T13:51:44.781Z,16.17
2023-01-21T13:54:31.609Z,4.10
2023-01-21T13:57:25.487Z,4.30
2023-01-21T13:59:55.260Z,2.80
2023-01-21T14:02:25.513Z,4.50
2023-01-21T14:04:57.207Z,3.00
2023-01-21T14:07:28.090Z,3.03
2023-01-21T14:10:00.197Z,3.13
2023-01-21T14:12:39.767Z,2.60
2023-01-21T14:15:49.589Z,3.00
2023-01-21T14:18:31.336Z,2.53
2023-01-21T14:21:18.496Z,7.22
2023-01-21T14:24:05.213Z,3.45
2023-01-21T14:26:44.567Z,2.78
2023-01-21T14:29:17.405Z,5.63
2023-01-21T14:31:47.925Z,2.70
2023-01-21T14:34:19.406Z,2.60
2023-01-21T14:36:55.297Z,3.90
2023-01-21T14:39:37.481Z,2.00
2023-01-21T14:42:10.920Z,2.67
2023-01-21T14:44:46.170Z,3.28
2023-01-21T14:47:19.844Z,5.18
2023-01-21T14:49:49.305Z,1.80
2023-01-21T14:52:20.568Z,2.00
2023-01-21T14:54:48.896Z,4.97
2023-01-21T14:57:29.622Z,2.47
2023-01-21T15:00:12.792Z,3.80
2023-01-21T15:02:43.072Z,2.97
2023-01-21T15:05:20.140Z,1.83
2023-01-21T15:07:50.817Z,1.60
2023-01-21T15:10:21.205Z,2.78
2023-01-21T15:12:53.404Z,2.00
2023-01-21T15:15:31.021Z,1.77
2023-01-21T15:18:05.544Z,3.20
2023-01-21T15:20:46.571Z,2.25
2023-01-21T15:23:28.342Z,2.50
2023-01-21T15:26:31.593Z,1.95
2023-01-21T15:29:24.216Z,2.75
2023-01-21T15:31:52.826Z,1.83
2023-01-21T15:34:21.399Z,1.92
2023-01-21T15:36:53.135Z,2.45
2023-01-21T15:39:26.507Z,1.90
2023-01-21T15:42:04.965Z,4.82
2023-01-21T15:44:54.331Z,2.65
2023-01-21T15:47:46.481Z,2.78
2023-01-21T15:50:21.948Z,2.53
2023-01-21T15:53:03.669Z,2.05
2023-01-21T15:55:51.324Z,4.40
2023-01-21T15:58:24.128Z,4.35
2023-01-21T16:00:56.596Z,2.58
2023-01-21T16:03:28.356Z,4.75
2023-01-21T16:06:02.437Z,5.95
2023-01-21T16:08:51.989Z,3.08
2023-01-21T16:11:44.577Z,4.25
2023-01-21T16:14:27.068Z,2.85
2023-01-21T16:17:00.174Z,3.33
2023-01-21T16:19:30.538Z,2.88
2023-01-21T16:22:02.260Z,2.72
2023-01-21T16:24:31.115Z,5.95
2023-01-21T16:27:17.889Z,5.95
2023-01-21T16:29:46.224Z,4.57
2023-01-21T16:32:18.589Z,3.45
2023-01-21T16:34:47.143Z,4.68
2023-01-21T16:37:19.952Z,6.15
2023-01-21T16:39:48.567Z,8.55
2023-01-21T16:42:27.421Z,3.80
2023-01-21T16:44:55.747Z,4.57
2023-01-21T16:47:27.227Z,4.15
2023-01-21T16:49:55.722Z,4.07
2023-01-21T16:52:24.886Z,3.35
2023-01-21T16:54:53.706Z,5.18
2023-01-21T16:57:28.814Z,3.35
2023-01-21T16:59:58.126Z,4.03
2023-01-21T17:02:28.479Z,5.93
2023-01-21T17:04:58.740Z,9.05
2023-01-21T17:07:28.907Z,11.07
2023-01-21T17:10:01.156Z,3.88
2023-01-21T17:12:30.820Z,3.90
2023-01-21T17:15:00.612Z,4.55
2023-01-21T17:17:32.131Z,5.82
2023-01-21T17:20:01.066Z,8.30
2023-01-21T17:22:31.460Z,8.38
2023-01-21T17:25:07.433Z,10.20
2023-01-21T17:27:38.561Z,3.50
2023-01-21T17:30:30.291Z,7.35
2023-01-21T17:33:00.035Z,2.50
2023-01-21T17:35:29.158Z,2.72
2023-01-21T17:37:58.501Z,6.43
2023-01-21T17:40:32.473Z,5.13
2023-01-21T17:43:20.522Z,3.00
2023-01-21T17:45:51.887Z,3.63
2023-01-21T17:48:28.493Z,4.95
2023-01-21T17:51:04.750Z,6.07
2023-01-21T17:53:33.498Z,7.43
2023-01-21T17:56:03.033Z,2.90
2023-01-21T17:58:49.836Z,3.95
2023-01-21T18:01:18.588Z,3.17
2023-01-21T18:03:46.979Z,3.22
2023-01-21T18:06:20.302Z,2.53
2023-01-21T18:08:50.502Z,2.80
2023-01-21T18:11:18.855Z,3.10
2023-01-21T18:13:48.653Z,4.68
2023-01-21T18:16:17.022Z,2.40
2023-01-21T18:18:45.383Z,2.65
2023-01-21T18:21:20.237Z,3.35
2023-01-21T18:23:48.824Z,3.15
2023-01-21T18:26:23.989Z,5.00
2023-01-21T18:28:53.599Z,4.00
2023-01-21T18:31:22.689Z,13.05
2023-01-21T18:33:51.104Z,17.58
2023-01-21T18:36:19.417Z,13.80
2023-01-21T18:38:47.771Z,39.08
2023-01-21T18:41:16.092Z,6.32
2023-01-21T18:43:44.434Z,8.63
2023-01-21T18:46:16.277Z,4.50
2023-01-21T18:48:44.621Z,5.00
2023-01-21T18:51:13.906Z,4.40
2023-01-21T18:53:42.191Z,10.93
2023-01-21T18:56:13.804Z,5.57
2023-01-21T18:58:42.157Z,3.70
2023-01-21T19:01:21.933Z,5.65
2023-01-21T19:03:54.769Z,10.43
2023-01-21T19:06:23.238Z,6.07
2023-01-21T19:08:51.623Z,4.93
2023-01-21T19:11:19.922Z,4.43
2023-01-21T19:13:48.354Z,4.30
2023-01-21T19:16:18.358Z,6.78
2023-01-21T19:18:46.875Z,4.85
2023-01-21T19:21:16.561Z,6.00
2023-01-21T19:23:44.831Z,6.82
2023-01-21T19:26:14.735Z,6.05
2023-01-21T19:28:43.327Z,4.43
2023-01-21T19:31:11.865Z,6.07
2023-01-21T19:33:42.732Z,6.28
2023-01-21T19:36:15.892Z,3.70
2023-01-21T19:38:46.832Z,4.68
2023-01-21T19:41:15.101Z,11.93
2023-01-21T19:43:43.420Z,2.95
2023-01-21T19:46:12.553Z,5.75
2023-01-21T19:48:41.171Z,4.95
2023-01-21T19:51:09.682Z,2.83
2023-01-21T19:53:38.074Z,3.67
2023-01-21T19:56:12.697Z,3.70
2023-01-21T19:58:42.089Z,3.65
2023-01-21T20:01:10.477Z,4.05
2023-01-21T20:03:43.478Z,3.92
2023-01-21T20:06:16.670Z,5.07
2023-01-21T20:08:44.989Z,6.20
2023-01-21T20:11:16.410Z,5.05
2023-01-21T20:13:44.728Z,4.20
2023-01-21T20:16:16.284Z,3.78
2023-01-21T20:18:46.114Z,3.13
2023-01-21T20:21:14.481Z,5.60
2023-01-21T20:23:42.793Z,4.10
2023-01-21T20:26:18.141Z,3.70
2023-01-21T20:28:50.290Z,3.67
2023-01-21T20:31:18.988Z,4.10
2023-01-21T20:33:47.450Z,5.15
2023-01-21T20:36:19.358Z,4.10
2023-01-21T20:38:47.808Z,7.25
2023-01-21T20:41:17.573Z,6.05
2023-01-21T20:43:45.867Z,8.30
2023-01-21T20:46:16.743Z,4.50
2023-01-21T20:48:45.648Z,4.28
2023-01-21T20:51:14.097Z,3.95
2023-01-21T20:53:42.499Z,5.45
2023-01-21T20:56:19.938Z,9.20
2023-01-21T20:58:48.892Z,3.72
2023-01-21T21:01:18.834Z,8.60
2023-01-21T21:03:47.310Z,4.50
2023-01-21T21:06:16.570Z,2.85
2023-01-21T21:08:44.983Z,3.20
2023-01-21T21:11:13.409Z,3.60
2023-01-21T21:13:43.139Z,5.93
2023-01-21T21:16:19.019Z,3.60
2023-01-21T21:18:47.482Z,6.55
2023-01-21T21:21:15.783Z,5.28
2023-01-21T21:23:46.435Z,3.35
2023-01-21T21:26:22.079Z,4.35
2023-01-21T21:28:54.561Z,3.67
2023-01-21T21:31:23.351Z,3.35
2023-01-21T21:33:51.773Z,3.08
2023-01-21T21:36:21.727Z,3.72
2023-01-21T21:38:52.281Z,5.35
2023-01-21T21:41:39.786Z,2.83
2023-01-21T21:44:09.908Z,4.70
2023-01-21T21:46:55.544Z,6.55
2023-01-21T21:49:23.876Z,3.63
2023-01-21T21:51:52.165Z,3.10
2023-01-21T21:54:20.850Z,4.47
2023-01-21T21:56:49.465Z,3.13
2023-01-21T21:59:19.183Z,6.82
2023-01-21T22:01:47.471Z,3.00
2023-01-21T22:04:15.857Z,4.32
2023-01-21T22:06:44.274Z,3.70
2023-01-21T22:09:13.828Z,2.38
2023-01-21T22:11:42.074Z,2.65
2023-01-21T22:14:10.385Z,2.60
2023-01-21T22:16:40.248Z,3.95
2023-01-21T22:19:08.665Z,5.35
2023-01-21T22:21:37.014Z,2.67
2023-01-21T22:24:06.811Z,4.10
2023-01-21T22:26:35.719Z,3.50
2023-01-21T22:29:04.136Z,4.07
2023-01-21T22:31:33.227Z,3.42
2023-01-21T22:34:02.966Z,6.88
2023-01-21T22:36:31.726Z,3.00
2023-01-21T22:39:00.309Z,4.10
2023-01-21T22:41:28.801Z,2.95
2023-01-21T22:43:57.172Z,3.13
2023-01-21T22:46:26.757Z,4.35
2023-01-21T22:48:55.286Z,3.03
2023-01-21T22:51:25.134Z,2.30
2023-01-21T22:53:53.864Z,2.72
2023-01-21T22:56:39.903Z,2.83
2023-01-21T22:59:12.118Z,4.40
2023-01-21T23:01:40.540Z,3.28
2023-01-21T23:04:09.616Z,3.75
2023-01-21T23:06:39.344Z,3.25
2023-01-21T23:09:09.689Z,2.90
2023-01-21T23:11:41.478Z,2.78
2023-01-21T23:14:10.634Z,2.53
2023-01-21T23:16:38.881Z,2.60
2023-01-21T23:19:07.165Z,2.65
2023-01-21T23:21:37.638Z,5.88
2023-01-21T23:24:08.514Z,3.95
2023-01-21T23:26:36.852Z,3.40
2023-01-21T23:29:05.236Z,3.65
2023-01-21T23:31:33.576Z,2.50
2023-01-21T23:34:03.286Z,2.97
2023-01-21T23:36:31.527Z,2.25
2023-01-21T23:38:59.799Z,3.50
2023-01-21T23:41:29.555Z,2.38
2023-01-21T23:44:00.798Z,2.80
2023-01-21T23:46:29.211Z,4.28
2023-01-21T23:48:57.620Z,2.90
2023-01-21T23:51:25.931Z,2.70
2023-01-21T23:53:54.920Z,3.35
2023-01-21T23:56:24.306Z,3.08
2023-01-21T23:58:54.896Z,2.85
